Time;durP1;ratioP1;P1;durP2;ratioP2;P2;SDS_P1;SDS_P2;PMS_P1;PMS_P2;Temp;Humidity;BMP_temperature;BMP_pressure;BME280_temperature;BME280_humidity;BME280_pressure;Samples;Min_cycle;Max_cycle;Signal;HPM_P1;HPM_P2
2021/12/24 00:01:39;;;;;;;24.45;13.93;;;;;;;-5.15;67.66;97266.30;1732140;82;20908;-64
2021/12/24 00:04:09;;;;;;;24.30;13.68;;;;;;;-5.15;67.67;97264.19;1728496;82;21027;-63
2021/12/24 00:06:37;;;;;;;21.87;13.62;;;;;;;-5.20;67.64;97264.81;1729060;82;20988;-60
2021/12/24 00:09:05;;;;;;;22.37;12.75;;;;;;;-5.21;67.89;97258.50;1738192;82;20884;-63
2021/12/24 00:11:33;;;;;;;21.15;14.07;;;;;;;-5.24;67.94;97262.83;1734437;82;21131;-62
2021/12/24 00:14:02;;;;;;;21.00;14.13;;;;;;;-5.28;68.07;97245.98;1733329;82;20886;-63
2021/12/24 00:16:40;;;;;;;24.02;15.78;;;;;;;-5.32;68.29;97246.12;1725192;82;20952;-59
2021/12/24 00:35:33;;;;;;;23.97;13.93;;;;;;;-5.17;68.91;97200.94;1733942;82;20914;-59
2021/12/24 00:38:03;;;;;;;22.42;13.95;;;;;;;-5.16;68.86;97189.49;1728811;82;21316;-58
2021/12/24 00:40:34;;;;;;;23.38;14.23;;;;;;;-5.14;69.00;97184.86;1736512;82;20951;-61
2021/12/24 00:43:01;;;;;;;26.05;15.08;;;;;;;-5.17;69.11;97186.08;1739355;82;20976;-64
2021/12/24 00:45:32;;;;;;;23.32;14.00;;;;;;;-5.24;69.34;97174.87;1738499;82;20895;-59
2021/12/24 00:47:59;;;;;;;27.30;14.85;;;;;;;-5.28;69.75;97174.20;1734345;82;20871;-57
2021/12/24 00:50:31;;;;;;;22.35;14.23;;;;;;;-5.32;70.04;97167.80;1736494;82;21077;-58
2021/12/24 00:53:02;;;;;;;24.92;14.55;;;;;;;-5.34;70.32;97162.77;1736650;82;20979;-59
2021/12/24 00:55:29;;;;;;;31.73;18.12;;;;;;;-5.34;70.58;97151.53;1738958;82;20953;-64
2021/12/24 00:58:00;;;;;;;31.93;18.65;;;;;;;-5.31;70.79;97150.61;1738350;82;20908;-59
2021/12/24 01:00:31;;;;;;;37.13;20.17;;;;;;;-5.30;70.94;97142.28;1730581;82;20895;-65
2021/12/24 01:02:59;;;;;;;30.25;17.55;;;;;;;-5.29;71.13;97133.42;1732547;82;21125;-63
2021/12/24 01:05:28;;;;;;;30.43;16.77;;;;;;;-5.26;71.40;97126.48;1736408;82;20955;-62
2021/12/24 01:07:55;;;;;;;30.20;15.53;;;;;;;-5.23;71.58;97128.69;1738481;82;20904;-61
2021/12/24 01:10:31;;;;;;;29.45;15.45;;;;;;;-5.26;71.95;97113.44;1733967;82;21565;-63
2021/12/24 01:12:57;;;;;;;23.45;15.10;;;;;;;-5.30;72.21;97110.96;1737648;82;20888;-62
2021/12/24 01:15:28;;;;;;;25.65;15.58;;;;;;;-5.34;72.76;97105.34;1730099;82;21089;-63
2021/12/24 01:18:04;;;;;;;29.23;16.48;;;;;;;-5.36;72.99;97102.66;1723176;82;20927;-63
2021/12/24 01:20:38;;;;;;;26.27;15.85;;;;;;;-5.35;73.32;97097.73;1726884;82;20995;-61
2021/12/24 01:23:27;;;;;;;28.25;15.70;;;;;;;-5.39;73.70;97081.69;1724477;82;20911;-59
2021/12/24 01:25:43;;;;;;;30.20;16.48;;;;;;;-5.35;74.00;97083.38;1728633;82;21402;-59
2021/12/24 01:44:28;;;;;;;27.30;14.97;;;;;;;-5.26;75.65;97045.06;1723593;82;20978;-60
2021/12/24 01:47:04;;;;;;;25.10;14.90;;;;;;;-5.23;75.94;97031.56;1720029;82;21035;-61
2021/12/24 01:49:33;;;;;;;23.25;14.63;;;;;;;-5.20;76.00;97027.72;1723280;82;21049;-62
2021/12/24 01:52:02;;;;;;;23.02;15.08;;;;;;;-5.19;76.11;97018.89;1728382;82;21067;-64
2021/12/24 01:54:29;;;;;;;26.37;15.50;;;;;;;-5.17;76.31;97016.86;1736692;82;21126;-60
2021/12/24 01:56:56;;;;;;;24.23;15.03;;;;;;;-5.14;76.49;97008.11;1735560;82;20936;-64
2021/12/24 01:59:23;;;;;;;26.37;15.05;;;;;;;-5.16;76.50;97005.42;1740568;82;21008;-59
2021/12/24 02:01:50;;;;;;;24.32;15.32;;;;;;;-5.21;76.61;97002.14;1724122;82;20860;-60
2021/12/24 02:04:17;;;;;;;24.23;14.80;;;;;;;-5.24;76.83;96998.65;1727419;82;20986;-64
2021/12/24 02:06:44;;;;;;;25.25;15.30;;;;;;;-5.19;77.04;96996.20;1717227;82;21693;-62
2021/12/24 02:09:11;;;;;;;22.75;14.55;;;;;;;-5.14;77.17;96991.63;1728350;82;20982;-64
2021/12/24 02:11:39;;;;;;;26.33;15.85;;;;;;;-5.12;77.45;96979.97;1726048;82;21542;-60
2021/12/24 02:14:10;;;;;;;29.42;15.72;;;;;;;-5.16;77.55;96974.09;1736043;82;21067;-64
2021/12/24 02:30:46;;;;;;;24.18;14.90;;;;;;;-5.11;78.73;96934.55;1727838;82;20990;-61
2021/12/24 02:33:13;;;;;;;24.75;13.65;;;;;;;-5.11;78.96;96922.02;1723004;82;21095;-60
2021/12/24 02:35:41;;;;;;;23.62;12.78;;;;;;;-5.10;79.20;96907.94;1731986;82;20888;-58
2021/12/24 02:38:08;;;;;;;23.77;13.32;;;;;;;-5.08;79.34;96901.98;1726618;82;21444;-59
2021/12/24 02:40:35;;;;;;;25.02;14.55;;;;;;;-5.06;79.46;96890.30;1729823;82;20887;-62
2021/12/24 02:43:02;;;;;;;20.12;13.28;;;;;;;-5.03;79.51;96885.16;1731822;82;20974;-63
2021/12/24 02:45:33;;;;;;;22.65;13.53;;;;;;;-5.00;79.64;96876.89;1728522;82;21122;-59
2021/12/24 02:56:05;;;;;;;20.92;12.85;;;;;;;-4.95;79.82;96861.36;1719718;82;21438;-59
2021/12/24 02:58:43;;;;;;;27.40;13.78;;;;;;;-4.99;79.85;96847.13;1732936;82;21682;-62
2021/12/24 03:01:16;;;;;;;23.45;13.88;;;;;;;-5.01;79.96;96842.64;1731662;82;20897;-60
2021/12/24 03:03:48;;;;;;;20.32;13.62;;;;;;;-5.04;80.00;96836.58;1723541;82;21023;-62
2021/12/24 03:06:19;;;;;;;;;;;;;;;-5.05;80.15;96834.97;1726405;82;21530;-63
2021/12/24 03:08:46;;;;;;;21.93;13.30;;;;;;;-5.07;80.14;96842.23;1725692;82;20107;-58
2021/12/24 03:11:14;;;;;;;20.50;13.18;;;;;;;-5.08;80.20;96820.53;1731105;82;21116;-58
2021/12/24 03:13:41;;;;;;;19.57;12.03;;;;;;;-5.09;80.26;96815.54;1731832;82;21462;-64
2021/12/24 03:16:08;;;;;;;21.80;12.28;;;;;;;-5.12;80.36;96808.14;1732627;82;20927;-61
2021/12/24 03:18:37;;;;;;;22.85;13.43;;;;;;;-5.11;80.34;96813.13;1728876;82;20904;-62
2021/12/24 03:21:09;;;;;;;18.07;12.63;;;;;;;-5.15;80.44;96808.57;1730466;82;20947;-59
2021/12/24 03:23:37;;;;;;;21.40;11.68;;;;;;;-5.14;80.62;96801.04;1717965;82;21122;-59
2021/12/24 03:26:03;;;;;;;17.50;11.73;;;;;;;-5.13;80.59;96788.25;1738038;82;20967;-59
2021/12/24 03:28:31;;;;;;;22.58;12.73;;;;;;;-5.10;80.57;96778.69;1737309;82;20908;-59
2021/12/24 03:30:59;;;;;;;22.20;13.55;;;;;;;-5.11;80.54;96790.16;1728592;82;21498;-58
2021/12/24 03:33:26;;;;;;;22.17;13.00;;;;;;;-5.17;80.64;96784.50;1732612;82;21440;-61
2021/12/24 03:35:53;;;;;;;20.55;12.28;;;;;;;-5.15;80.72;96785.08;1734998;82;21157;-64
2021/12/24 03:38:20;;;;;;;18.70;11.93;;;;;;;-5.16;80.63;96769.94;1734858;82;20932;-64
2021/12/24 03:40:47;;;;;;;19.32;12.23;;;;;;;-5.16;80.75;96764.72;1736049;82;21052;-64
2021/12/24 03:43:14;;;;;;;19.32;12.50;;;;;;;-5.17;80.70;96762.31;1729735;82;20996;-63
2021/12/24 03:48:26;;;;;;;19.67;13.10;;;;;;;-5.14;80.80;96768.41;1726492;82;21113;-63
2021/12/24 03:50:58;;;;;;;17.87;10.93;;;;;;;-5.18;80.81;96764.65;1729018;82;20919;-60
2021/12/24 03:56:04;;;;;;;19.45;12.90;;;;;;;-5.23;81.06;96755.38;1737654;82;26811;-61
2021/12/24 03:58:32;;;;;;;19.73;12.07;;;;;;;-5.22;81.30;96741.28;1735110;82;21343;-59
2021/12/24 04:01:10;;;;;;;17.87;11.78;;;;;;;-5.18;81.35;96745.06;1681411;84;21136;-59
2021/12/24 04:03:38;;;;;;;22.25;13.75;;;;;;;-5.14;81.34;96739.69;1699722;82;20903;-63
2021/12/24 04:06:13;;;;;;;20.40;12.60;;;;;;;-5.14;81.40;96734.46;1697503;82;20975;-58
2021/12/24 04:08:53;;;;;;;17.73;12.05;;;;;;;-5.09;81.42;96721.55;1692239;82;20967;-59
2021/12/24 04:11:38;;;;;;;18.32;11.63;;;;;;;-5.11;81.37;96723.58;1733482;82;20913;-58
2021/12/24 04:14:05;;;;;;;19.45;12.05;;;;;;;-5.16;81.54;96718.23;1738831;82;21165;-60
2021/12/24 04:16:32;;;;;;;19.98;11.60;;;;;;;-5.14;81.48;96722.21;1738550;82;20967;-63
2021/12/24 04:27:01;;;;;;;15.93;10.38;;;;;;;-5.34;81.69;96691.65;1735883;82;21474;-58
2021/12/24 04:29:28;;;;;;;16.35;10.88;;;;;;;-5.41;81.85;96694.85;1733892;82;21009;-62
2021/12/24 04:32:09;;;;;;;19.50;12.30;;;;;;;-5.47;82.10;96692.34;1731721;82;20942;-57
2021/12/24 04:34:33;;;;;;;19.60;11.75;;;;;;;-5.50;82.29;96683.64;1721945;82;21001;-62
2021/12/24 04:39:41;;;;;;;19.95;12.78;;;;;;;-5.51;82.44;96682.84;1733376;82;21700;-60
2021/12/24 05:01:19;;;;;;;17.77;12.75;;;;;;;-5.50;83.11;96643.20;1729872;82;20942;-62
2021/12/24 05:03:43;;;;;;;21.50;13.50;;;;;;;-5.44;83.20;96644.94;1731478;82;20915;-59
2021/12/24 05:06:16;;;;;;;21.73;14.28;;;;;;;-5.41;83.25;96639.25;1734005;82;21139;-63
2021/12/24 05:08:48;;;;;;;19.00;11.80;;;;;;;-5.40;83.24;96632.52;1719522;82;21014;-59
2021/12/24 05:11:12;;;;;;;20.57;14.25;;;;;;;-5.39;83.20;96622.35;1730104;82;20896;-59
2021/12/24 05:13:38;;;;;;;26.85;16.62;;;;;;;-5.38;83.43;96625.77;1720529;82;20927;-60
2021/12/24 05:16:46;;;;;;;30.37;18.02;;;;;;;-5.36;83.38;96619.81;1666234;85;20991;-61
2021/12/24 05:21:32;;;;;;;34.70;22.85;;;;;;;-5.35;83.37;96630.55;1661122;85;21177;-63
2021/12/24 05:21:34;;;;;;;29.35;18.02;;;;;;;-5.36;83.41;96647.21;1665623;84;20899;-62
2021/12/24 05:24:05;;;;;;;20.92;13.60;;;;;;;-5.35;83.47;96640.98;1729060;82;20896;-63
2021/12/24 05:26:32;;;;;;;21.35;13.45;;;;;;;-5.37;83.62;96612.48;1731232;82;20900;-61
2021/12/24 05:28:59;;;;;;;21.05;12.65;;;;;;;-5.39;83.73;96594.18;1736741;82;21455;-63
2021/12/24 05:31:26;;;;;;;19.37;12.50;;;;;;;-5.40;83.83;96596.48;1727382;82;21117;-60
2021/12/24 05:33:53;;;;;;;17.55;12.25;;;;;;;-5.40;83.93;96603.81;1730610;82;21613;-65
2021/12/24 05:36:21;;;;;;;19.92;12.07;;;;;;;-5.35;83.94;96608.36;1725425;82;21034;-59
2021/12/24 05:38:48;;;;;;;22.62;13.48;;;;;;;-5.36;83.99;96620.61;1723783;82;20983;-64
2021/12/24 05:41:18;;;;;;;22.27;13.40;;;;;;;-5.35;84.09;96606.55;1734540;82;20935;-65
2021/12/24 05:43:45;;;;;;;21.05;12.35;;;;;;;-5.30;84.06;96592.30;1722020;82;21258;-62
2021/12/24 05:46:12;;;;;;;20.60;12.20;;;;;;;-5.24;84.04;96581.48;1729147;82;21349;-62
2021/12/24 05:48:59;;;;;;;20.20;12.82;;;;;;;-5.22;83.96;96571.61;1739003;82;21459;-64
2021/12/24 05:51:27;;;;;;;23.27;14.93;;;;;;;-5.19;83.84;96573.77;1738673;82;20875;-59
2021/12/24 05:54:12;;;;;;;19.48;13.03;;;;;;;-5.22;83.80;96572.91;1743800;82;21000;-65
2021/12/24 05:56:39;;;;;;;19.02;13.58;;;;;;;-5.22;83.80;96575.02;1737431;82;21708;-64
2021/12/24 05:59:07;;;;;;;20.17;13.20;;;;;;;-5.18;83.84;96574.07;1734101;82;21387;-62
2021/12/24 06:01:35;;;;;;;22.95;14.23;;;;;;;-5.15;83.68;96568.38;1739818;82;20912;-64
2021/12/24 06:04:02;;;;;;;32.30;22.95;;;;;;;-5.17;83.71;96564.70;1741289;82;20908;-65
2021/12/24 06:06:30;;;;;;;22.98;15.03;;;;;;;-5.17;83.75;96557.38;1726066;82;20895;-64
2021/12/24 06:08:57;;;;;;;28.50;18.62;;;;;;;-5.14;83.83;96549.90;1731493;82;21125;-60
2021/12/24 06:11:24;;;;;;;22.48;14.53;;;;;;;-5.12;84.20;96546.55;1732145;82;21043;-61
2021/12/24 06:13:54;;;;;;;38.35;23.50;;;;;;;-5.11;84.18;96535.59;1725370;82;21111;-62
2021/12/24 06:16:20;;;;;;;37.83;23.60;;;;;;;-5.09;84.31;96546.61;1734644;82;20991;-60
2021/12/24 06:18:46;;;;;;;29.98;18.20;;;;;;;-5.12;84.39;96541.83;1719214;82;20968;-62
2021/12/24 06:21:13;;;;;;;28.83;19.70;;;;;;;-5.11;84.52;96534.30;1720372;81;21419;-66
2021/12/24 06:23:41;;;;;;;38.13;20.92;;;;;;;-5.10;84.48;96535.87;1699459;81;20896;-63
2021/12/24 06:26:08;;;;;;;34.35;20.10;;;;;;;-5.10;84.58;96542.39;1722542;81;20977;-62
2021/12/24 06:28:35;;;;;;;26.30;14.13;;;;;;;-5.09;84.60;96551.83;1720478;81;21412;-62
2021/12/24 06:31:03;;;;;;;24.90;14.07;;;;;;;-5.09;84.64;96549.22;1720621;81;21979;-65
2021/12/24 06:33:30;;;;;;;31.45;18.30;;;;;;;-5.05;84.66;96532.07;1719364;81;21117;-63
2021/12/24 06:35:57;;;;;;;36.85;21.10;;;;;;;-5.04;84.57;96531.83;1734869;81;20898;-66
2021/12/24 06:38:24;;;;;;;32.03;18.82;;;;;;;-5.08;84.41;96537.73;1736184;81;21043;-64
2021/12/24 06:40:52;;;;;;;32.17;20.15;;;;;;;-5.09;84.46;96530.94;1731674;82;21084;-64
2021/12/24 06:43:19;;;;;;;24.00;14.98;;;;;;;-5.06;84.50;96522.63;1690470;83;20936;-64
2021/12/24 06:45:47;;;;;;;31.90;17.30;;;;;;;-5.02;84.73;96532.93;1729165;82;21131;-62
2021/12/24 06:48:14;;;;;;;29.12;16.50;;;;;;;-5.02;84.82;96534.23;1734560;82;21071;-61
2021/12/24 06:50:41;;;;;;;27.80;17.42;;;;;;;-5.01;84.85;96528.77;1734172;82;20979;-65
2021/12/24 06:53:08;;;;;;;28.17;15.08;;;;;;;-4.98;84.76;96518.39;1689775;84;20941;-63
2021/12/24 06:55:36;;;;;;;22.98;15.88;;;;;;;-5.05;85.03;96515.09;1684953;84;20952;-59
2021/12/24 06:58:04;;;;;;;25.35;13.53;;;;;;;-5.07;85.24;96522.37;1676956;85;21159;-62
2021/12/24 07:00:32;;;;;;;30.23;16.05;;;;;;;-5.05;85.33;96526.34;1674138;85;20945;-62
2021/12/24 07:02:59;;;;;;;27.98;16.85;;;;;;;-5.06;85.39;96516.91;1674402;85;20905;-66
2021/12/24 07:05:26;;;;;;;27.60;16.42;;;;;;;-5.04;85.31;96516.16;1671228;85;21423;-62
2021/12/24 07:07:53;;;;;;;32.20;19.40;;;;;;;-4.98;85.32;96513.16;1673357;85;21397;-63
2021/12/24 07:10:20;;;;;;;22.02;13.75;;;;;;;-4.89;85.13;96517.02;1674635;85;22242;-65
2021/12/24 07:12:46;;;;;;;21.57;14.98;;;;;;;-4.86;84.93;96509.53;1671195;85;20951;-63
2021/12/24 07:15:13;;;;;;;23.85;14.47;;;;;;;-4.90;84.90;96490.09;1673289;85;21122;-64
2021/12/24 07:17:39;;;;;;;22.37;14.28;;;;;;;-4.95;84.97;96495.74;1671337;85;21168;-67
2021/12/24 07:20:07;;;;;;;42.08;23.57;;;;;;;-5.01;85.10;96493.52;1671202;85;20964;-64
2021/12/24 07:22:36;;;;;;;32.13;20.10;;;;;;;-5.03;85.34;96492.16;1672571;85;21337;-61
2021/12/24 07:25:04;;;;;;;31.25;20.55;;;;;;;-4.97;85.40;96484.73;1728142;82;20915;-61
2021/12/24 07:27:31;;;;;;;24.67;15.63;;;;;;;-4.90;85.30;96478.88;1727657;82;20986;-61
2021/12/24 07:29:57;;;;;;;30.50;17.40;;;;;;;-4.91;85.23;96476.77;1690200;83;20912;-64
2021/12/24 07:32:24;;;;;;;22.62;14.83;;;;;;;-4.93;85.32;96474.91;1727278;82;20924;-66
2021/12/24 07:34:51;;;;;;;27.65;16.27;;;;;;;-4.87;85.21;96472.67;1721919;81;21128;-65
2021/12/24 07:37:18;;;;;;;26.57;16.93;;;;;;;-4.82;85.36;96479.81;1716786;82;20987;-65
2021/12/24 07:39:44;;;;;;;32.75;20.45;;;;;;;-4.82;85.53;96458.92;1731830;81;20986;-65
2021/12/24 07:42:11;;;;;;;35.45;21.02;;;;;;;-4.82;85.80;96466.75;1730769;82;20928;-63
2021/12/24 07:44:38;;;;;;;27.62;17.37;;;;;;;-4.81;85.84;96461.02;1727817;81;21467;-63
2021/12/24 07:47:14;;;;;;;27.75;17.67;;;;;;;-4.79;86.13;96458.47;1729461;81;21156;-61
2021/12/24 07:49:40;;;;;;;32.25;18.12;;;;;;;-4.75;86.21;96456.97;1686667;83;20935;-61
2021/12/24 07:54:43;;;;;;;47.73;33.58;;;;;;;-4.68;86.09;96455.53;1740722;81;20856;-67
2021/12/24 07:57:11;;;;;;;27.87;18.95;;;;;;;-4.71;86.05;96460.70;1732035;81;21538;-62
2021/12/24 07:59:40;;;;;;;49.73;40.48;;;;;;;-4.72;86.11;96460.95;1737217;81;21757;-62
2021/12/24 08:02:15;;;;;;;24.72;19.02;;;;;;;-4.69;86.20;96461.30;1728437;81;21034;-63
2021/12/24 08:04:45;;;;;;;24.95;15.95;;;;;;;-4.64;86.19;96458.75;1741858;81;20911;-67
2021/12/24 08:07:12;;;;;;;28.45;17.15;;;;;;;-4.59;86.03;96442.41;1718018;81;20905;-59
2021/12/24 08:09:39;;;;;;;23.47;16.02;;;;;;;-4.58;86.31;96442.17;1723002;81;21113;-66
2021/12/24 08:12:09;;;;;;;26.68;18.12;;;;;;;-4.52;86.35;96436.00;1729221;81;21124;-58
2021/12/24 08:14:35;;;;;;;24.75;15.75;;;;;;;-4.45;86.54;96439.27;1712368;81;21501;-60
2021/12/24 08:17:05;;;;;;;25.25;16.50;;;;;;;-4.38;86.17;96439.92;1731532;81;21113;-64
2021/12/24 08:19:32;;;;;;;26.42;16.10;;;;;;;-4.39;86.05;96428.41;1723873;81;21010;-68
2021/12/24 08:22:06;;;;;;;20.17;12.90;;;;;;;-4.43;86.10;96422.84;1716534;81;20881;-63
2021/12/24 08:24:33;;;;;;;19.30;12.40;;;;;;;-4.40;86.12;96415.84;1712035;81;21490;-60
2021/12/24 08:26:59;;;;;;;20.43;13.18;;;;;;;-4.37;86.16;96411.46;1707743;81;21034;-61
2021/12/24 08:29:35;;;;;;;18.60;12.43;;;;;;;-4.32;86.15;96402.91;1723076;81;21046;-64
2021/12/24 08:34:44;;;;;;;27.42;19.48;;;;;;;-4.16;85.98;96399.02;1855747;75;28624;-64
2021/12/24 08:37:11;;;;;;;29.65;14.63;;;;;;;-4.17;85.93;96401.89;1828530;77;20962;-59
2021/12/24 08:39:38;;;;;;;21.52;13.28;;;;;;;-4.17;85.90;96394.05;1836156;77;22759;-67
2021/12/24 08:42:06;;;;;;;18.00;12.80;;;;;;;-4.17;86.01;96396.12;1833469;77;20916;-69
2021/12/24 08:44:33;;;;;;;21.42;14.43;;;;;;;-4.18;86.05;96379.38;1833249;77;21045;-56
2021/12/24 08:47:01;;;;;;;19.25;13.43;;;;;;;-4.13;86.18;96379.46;1829405;77;21024;-59
2021/12/24 08:49:28;;;;;;;20.55;12.18;;;;;;;-4.06;86.14;96366.22;1845365;77;20941;-66
2021/12/24 08:51:56;;;;;;;36.13;22.20;;;;;;;-4.00;86.08;96370.52;1825788;76;21038;-61
2021/12/24 08:54:24;;;;;;;37.48;25.70;;;;;;;-3.99;86.07;96371.58;1831689;77;20931;-67
2021/12/24 08:56:54;;;;;;;28.05;18.60;;;;;;;-3.96;86.16;96359.34;1828458;77;20908;-62
2021/12/24 08:59:23;;;;;;;29.60;17.37;;;;;;;-3.90;86.15;96348.42;1835026;77;21363;-61
2021/12/24 09:01:53;;;;;;;26.10;17.50;;;;;;;-3.86;86.18;96345.62;1833238;77;21527;-61
2021/12/24 09:04:20;;;;;;;25.32;16.30;;;;;;;-3.80;86.15;96334.20;1774448;80;21100;-61
2021/12/24 09:06:47;;;;;;;29.07;19.27;;;;;;;-3.77;86.25;96325.34;1771655;80;21606;-65
2021/12/24 09:09:14;;;;;;;43.10;25.90;;;;;;;-3.68;86.29;96321.81;1770327;80;21030;-62
2021/12/24 09:11:42;;;;;;;29.02;18.95;;;;;;;-3.59;86.17;96317.75;1773083;79;21035;-67
2021/12/24 09:14:09;;;;;;;27.42;18.55;;;;;;;-3.52;86.13;96323.61;1771650;80;20945;-64
2021/12/24 09:19:12;;;;;;;23.92;16.52;;;;;;;-3.40;86.11;96331.34;1868565;76;28631;-66
2021/12/24 09:21:38;;;;;;;25.85;16.85;;;;;;;-3.41;86.13;96308.84;1835036;77;21249;-65
2021/12/24 09:24:07;;;;;;;34.50;19.07;;;;;;;-3.41;86.16;96321.39;1851180;77;21058;-62
2021/12/24 09:26:36;;;;;;;32.75;19.10;;;;;;;-3.44;86.36;96329.75;1845797;77;21021;-61
2021/12/24 09:29:06;;;;;;;41.95;23.95;;;;;;;-3.48;86.67;96330.73;1849048;77;20935;-63
2021/12/24 09:31:33;;;;;;;23.42;15.25;;;;;;;-3.49;86.72;96320.52;1844436;77;21021;-61
2021/12/24 09:34:02;;;;;;;19.32;13.00;;;;;;;-3.46;86.97;96310.84;1844827;77;20904;-65
2021/12/24 09:36:29;;;;;;;28.07;16.93;;;;;;;-3.47;87.07;96307.97;1847011;77;21189;-63
2021/12/24 09:39:00;;;;;;;34.85;20.43;;;;;;;-3.41;87.25;96296.52;1841972;77;20958;-61
2021/12/24 09:41:28;;;;;;;28.10;18.05;;;;;;;-3.39;87.27;96304.15;1848560;77;21390;-59
2021/12/24 09:43:58;;;;;;;21.97;15.53;;;;;;;-3.39;87.75;96294.45;1842566;77;20876;-66
2021/12/24 09:46:25;;;;;;;19.37;13.80;;;;;;;-3.36;87.87;96288.73;1834130;77;21354;-61
2021/12/24 09:48:52;;;;;;;19.60;13.30;;;;;;;-3.33;88.04;96277.78;1849138;77;21450;-63
2021/12/24 09:51:23;;;;;;;18.37;12.43;;;;;;;-3.31;88.43;96267.84;1833183;77;20995;-70
2021/12/24 09:53:50;;;;;;;24.55;15.85;;;;;;;-3.31;88.64;96273.08;1836425;77;20853;-61
2021/12/24 09:56:17;;;;;;;21.90;14.47;;;;;;;-3.28;88.64;96284.91;1845440;77;20905;-64
2021/12/24 09:58:44;;;;;;;18.45;12.63;;;;;;;-3.25;88.74;96290.97;1846074;77;21367;-64
2021/12/24 10:01:29;;;;;;;14.93;11.60;;;;;;;-3.23;88.79;96284.45;1846719;77;21126;-69
2021/12/24 10:04:10;;;;;;;17.55;12.30;;;;;;;-3.22;89.11;96283.41;1848680;77;28658;-64
2021/12/24 10:06:38;;;;;;;27.77;17.82;;;;;;;-3.23;89.33;96271.36;1842768;77;20935;-61
2021/12/24 10:09:20;;;;;;;22.70;15.35;;;;;;;-3.22;89.57;96269.00;1845517;76;21014;-69
2021/12/24 10:11:59;;;;;;;42.73;26.97;;;;;;;-3.22;89.59;96269.00;1837307;77;21474;-61
2021/12/24 10:14:33;;;;;;;38.02;25.68;;;;;;;-3.21;89.72;96274.52;1810662;77;21096;-67
2021/12/24 10:17:01;;;;;;;29.00;20.40;;;;;;;-3.18;89.78;96257.53;1830571;77;21011;-59
2021/12/24 10:19:29;;;;;;;25.40;17.12;;;;;;;-3.19;89.94;96250.19;1827499;77;21534;-64
2021/12/24 10:22:01;;;;;;;115.75;65.40;;;;;;;-3.19;89.89;96252.80;1834417;77;20916;-63
2021/12/24 10:24:28;;;;;;;47.93;30.35;;;;;;;-3.15;89.90;96255.70;1814050;77;21064;-59
2021/12/24 10:26:58;;;;;;;40.43;29.23;;;;;;;-3.11;89.80;96242.41;1828241;76;21113;-69
2021/12/24 10:29:39;;;;;;;36.10;26.93;;;;;;;-3.07;90.19;96237.75;1832180;77;20918;-65
2021/12/24 10:32:14;;;;;;;29.20;21.75;;;;;;;-3.04;90.24;96239.09;1823601;76;21480;-69
2021/12/24 10:34:43;;;;;;;22.50;16.82;;;;;;;-3.00;90.16;96228.37;1820289;77;20973;-65
2021/12/24 10:37:22;;;;;;;28.83;19.73;;;;;;;-2.99;90.45;96226.81;1835522;77;21153;-68
2021/12/24 10:39:53;;;;;;;29.92;21.77;;;;;;;-2.96;90.66;96231.56;1829316;76;21084;-61
2021/12/24 10:42:38;;;;;;;25.05;16.77;;;;;;;-2.91;90.47;96208.55;1826839;77;20991;-68
2021/12/24 10:45:20;;;;;;;24.45;17.87;;;;;;;-2.89;90.31;96216.44;1826633;76;20983;-60
2021/12/24 10:47:47;;;;;;;24.63;17.80;;;;;;;-2.87;90.22;96209.11;1820709;77;21063;-66
2021/12/24 10:53:16;;;;;;;25.88;15.53;;;;;;;-2.80;90.11;96207.59;1784227;79;21768;-61
2021/12/24 10:55:51;;;;;;;23.87;16.50;;;;;;;-2.75;90.10;96210.27;1767777;79;20983;-68
2021/12/24 10:58:20;;;;;;;34.70;23.73;;;;;;;-2.71;90.03;96217.12;1754219;80;21079;-61
2021/12/24 11:00:57;;;;;;;26.35;18.12;;;;;;;-2.68;90.05;96187.77;1793845;79;20956;-70
2021/12/24 11:03:27;;;;;;;25.72;16.50;;;;;;;-2.63;89.97;96189.13;1791704;79;21463;-65
2021/12/24 11:06:06;;;;;;;20.15;14.50;;;;;;;-2.57;90.08;96178.97;1793581;79;21019;-61
2021/12/24 11:08:33;;;;;;;24.85;15.88;;;;;;;-2.50;89.88;96169.06;1765607;80;21060;-62
2021/12/24 11:11:01;;;;;;;22.15;15.78;;;;;;;-2.45;89.81;96163.31;1789881;79;21083;-66
2021/12/24 11:13:39;;;;;;;22.15;14.78;;;;;;;-2.39;89.68;96161.02;1773434;80;21077;-56
2021/12/24 11:16:08;;;;;;;24.30;16.10;;;;;;;-2.37;89.68;96153.67;1786809;80;21600;-64
2021/12/24 11:18:43;;;;;;;22.07;15.50;;;;;;;-2.35;89.70;96152.10;1835969;77;21095;-68
2021/12/24 11:21:20;;;;;;;20.50;16.10;;;;;;;-2.35;89.71;96145.55;1843901;77;21152;-65
2021/12/24 11:23:47;;;;;;;21.37;15.10;;;;;;;-2.32;89.80;96145.05;1843427;77;21793;-63
2021/12/24 11:26:20;;;;;;;26.50;17.12;;;;;;;-2.29;89.80;96145.34;1838692;77;20971;-58
2021/12/24 11:28:46;;;;;;;24.20;16.32;;;;;;;-2.26;89.97;96144.05;1840608;77;21522;-64
2021/12/24 11:31:17;;;;;;;24.92;16.23;;;;;;;-2.23;90.00;96142.22;1842879;77;21123;-66
2021/12/24 11:33:45;;;;;;;21.45;17.02;;;;;;;-2.22;90.13;96141.19;1836830;77;20986;-59
2021/12/24 11:36:17;;;;;;;52.03;32.03;;;;;;;-2.18;90.33;96154.05;1847717;77;21001;-64
2021/12/24 11:38:49;;;;;;;42.17;26.87;;;;;;;-2.13;90.35;96154.08;1839857;77;21144;-66
2021/12/24 11:41:20;;;;;;;23.02;16.52;;;;;;;-2.06;90.42;96153.33;1845998;77;21006;-62
2021/12/24 11:43:49;;;;;;;25.00;17.98;;;;;;;-2.00;90.34;96137.10;1841925;77;21103;-58
2021/12/24 11:46:19;;;;;;;22.48;16.32;;;;;;;-2.01;90.30;96143.39;1845207;77;20911;-66
2021/12/24 11:48:52;;;;;;;21.37;16.67;;;;;;;-1.99;90.45;96143.40;1841382;77;21108;-60
2021/12/24 11:51:19;;;;;;;28.00;20.15;;;;;;;-1.97;90.50;96151.80;1839259;77;21055;-63
2021/12/24 11:56:21;;;;;;;25.48;19.00;;;;;;;-1.92;90.64;96154.45;1845398;77;21078;-62
2021/12/24 11:58:56;;;;;;;23.27;17.65;;;;;;;-1.89;90.59;96153.95;1846976;77;20980;-56
2021/12/24 12:01:30;;;;;;;28.12;19.10;;;;;;;-1.86;90.73;96154.73;1845505;77;20915;-67
2021/12/24 12:03:58;;;;;;;24.63;18.65;;;;;;;-1.83;90.81;96145.05;1844989;77;20970;-60
2021/12/24 12:06:32;;;;;;;24.05;19.85;;;;;;;-1.78;90.92;96140.33;1848723;77;20922;-63
2021/12/24 12:09:08;;;;;;;24.12;17.82;;;;;;;-1.72;90.98;96141.95;1844513;77;21060;-58
2021/12/24 12:11:36;;;;;;;24.35;18.17;;;;;;;-1.67;91.08;96145.36;1841202;77;21460;-66
2021/12/24 12:14:21;;;;;;;22.40;17.45;;;;;;;-1.59;91.04;96142.77;1841117;77;21468;-66
2021/12/24 12:16:51;;;;;;;33.20;22.00;;;;;;;-1.54;91.05;96146.21;1842826;77;21007;-57
2021/12/24 12:19:27;;;;;;;28.90;20.77;;;;;;;-1.49;91.01;96152.00;1834989;77;21166;-64
2021/12/24 12:22:20;;;;;;;;;;;;;;;-1.48;91.04;96145.69;1831024;77;21838;-61
2021/12/24 12:24:57;;;;;;;35.03;23.25;;;;;;;-1.47;91.12;96128.37;1834362;77;20080;-64
2021/12/24 12:27:37;;;;;;;42.53;32.00;;;;;;;-1.43;91.23;96134.67;1826212;77;20965;-65
2021/12/24 12:30:39;;;;;;;43.78;31.48;;;;;;;-1.34;91.27;96118.42;1827986;77;20961;-65
2021/12/24 12:33:16;;;;;;;42.55;31.82;;;;;;;-1.30;91.29;96126.84;1827094;77;21088;-59
2021/12/24 12:35:55;;;;;;;48.38;35.45;;;;;;;-1.22;91.24;96139.96;1826900;77;21036;-71
2021/12/24 12:38:41;;;;;;;32.10;23.77;;;;;;;-1.20;91.31;96118.95;1831270;77;21496;-65
2021/12/24 12:41:37;;;;;;;39.13;27.27;;;;;;;-1.17;91.31;96120.27;1834860;77;21468;-68
2021/12/24 12:44:03;;;;;;;43.52;25.68;;;;;;;-1.14;91.33;96125.02;1825233;77;20994;-64
2021/12/24 12:46:40;;;;;;;36.10;26.45;;;;;;;-1.11;91.42;96125.81;1827845;77;21487;-61
2021/12/24 12:49:11;;;;;;;28.20;22.55;;;;;;;-1.06;91.50;96117.94;1832694;77;21059;-65
2021/12/24 12:51:55;;;;;;;30.60;22.60;;;;;;;-1.00;91.55;96136.59;1835620;77;21023;-61
2021/12/24 12:54:44;;;;;;;31.55;22.98;;;;;;;-0.96;91.50;96117.92;1834136;77;20963;-63
2021/12/24 12:57:23;;;;;;;33.40;26.30;;;;;;;-0.94;91.54;96123.19;1823281;77;21471;-62
2021/12/24 13:00:18;;;;;;;28.35;20.50;;;;;;;-0.94;91.55;96125.02;1834134;77;21550;-64
2021/12/24 13:03:07;;;;;;;28.92;21.68;;;;;;;-0.94;91.72;96135.02;1831957;77;21475;-62
2021/12/24 13:05:42;;;;;;;33.23;23.73;;;;;;;-0.89;91.83;96131.59;1828912;77;21470;-63
2021/12/24 13:08:17;;;;;;;27.13;21.80;;;;;;;-0.84;91.89;96120.56;1820388;77;21009;-63
2021/12/24 13:11:12;;;;;;;27.62;21.17;;;;;;;-0.79;91.91;96117.15;1835563;77;20957;-65
2021/12/24 13:13:51;;;;;;;;;;;;;;;-0.73;91.94;96112.17;1827604;77;20935;-59
2021/12/24 13:16:16;;;;;;;24.05;19.32;;;;;;;-0.62;92.13;96108.47;1825185;77;20984;-66